Time;durP1;ratioP1;P1;durP2;ratioP2;P2;SDS_P1;SDS_P2;PMS_P1;PMS_P2;Temp;Humidity;BMP_temperature;BMP_pressure;BME280_temperature;BME280_humidity;BME280_pressure;Samples;Min_cycle;Max_cycle;Signal;HPM_P1;HPM_P2
2021/11/24 00:02:34;;;;;;;1.10;1.10;;;;;;;5.28;79.57;101000.56;6141140;29;20387;-73
2021/11/24 00:05:40;;;;;;;1.87;1.13;;;;;;;5.51;79.46;101009.53;6141475;29;20250;-73
2021/11/24 00:08:44;;;;;;;1.10;1.10;;;;;;;5.70;78.54;100998.22;6142139;29;20191;-73
2021/11/24 00:11:48;;;;;;;1.83;1.00;;;;;;;5.60;78.30;100998.47;6142443;29;20197;-73
2021/11/24 00:14:52;;;;;;;1.27;1.00;;;;;;;5.71;77.94;100991.78;6141360;29;20194;-74
2021/11/24 00:17:57;;;;;;;0.90;0.90;;;;;;;5.63;78.30;100995.41;6141954;29;20197;-73
2021/11/24 00:21:03;;;;;;;1.83;0.90;;;;;;;5.77;77.67;100999.19;6140988;29;20440;-74
2021/11/24 00:24:08;;;;;;;0.80;0.80;;;;;;;5.57;78.43;100992.59;6141778;29;20285;-74
2021/11/24 00:27:12;;;;;;;0.80;0.80;;;;;;;5.65;78.44;100992.50;6141845;29;20196;-74
2021/11/24 00:30:17;;;;;;;3.13;0.90;;;;;;;5.76;78.52;100986.69;6140697;29;20193;-74
2021/11/24 00:33:21;;;;;;;1.00;1.00;;;;;;;5.81;77.60;101007.78;6141786;29;20200;-74
2021/11/24 00:36:27;;;;;;;0.90;0.90;;;;;;;5.84;77.79;101005.56;6141778;29;20194;-74
2021/11/24 00:39:32;;;;;;;1.10;1.10;;;;;;;5.86;77.77;100995.41;6141995;29;20253;-73
2021/11/24 00:42:37;;;;;;;1.13;0.97;;;;;;;5.91;77.90;100995.72;6141686;29;20222;-74
2021/11/24 00:45:41;;;;;;;0.90;0.90;;;;;;;5.96;77.44;100997.84;6140594;29;20216;-74
2021/11/24 00:48:45;;;;;;;0.93;0.93;;;;;;;5.89;77.36;100997.75;6140654;29;20483;-74
2021/11/24 00:51:51;;;;;;;1.27;0.90;;;;;;;5.86;77.97;100987.28;6141464;29;20197;-73
2021/11/24 00:54:56;;;;;;;0.80;0.80;;;;;;;5.84;78.16;100989.31;6141480;29;20275;-74
2021/11/24 00:58:00;;;;;;;0.90;0.90;;;;;;;5.98;77.61;100985.84;6144096;29;20190;-74
2021/11/24 01:01:05;;;;;;;1.10;1.10;;;;;;;5.85;78.03;100988.34;6146679;29;20199;-74
2021/11/24 01:04:11;;;;;;;0.80;0.80;;;;;;;5.98;78.09;101012.94;6145748;29;20247;-73
2021/11/24 01:07:17;;;;;;;1.17;1.00;;;;;;;5.87;78.10;100999.81;6146453;29;20191;-74
2021/11/24 01:10:21;;;;;;;0.80;0.80;;;;;;;6.09;77.56;101001.63;6144979;29;20492;-73
2021/11/24 01:13:25;;;;;;;0.90;0.90;;;;;;;5.87;77.91;101016.06;6145982;29;20221;-73
2021/11/24 01:16:30;;;;;;;1.00;1.00;;;;;;;5.98;78.47;101018.34;6144962;29;20378;-74
2021/11/24 01:19:34;;;;;;;0.80;0.80;;;;;;;5.83;78.66;101017.41;6145475;29;20190;-74
2021/11/24 01:22:42;;;;;;;0.90;0.90;;;;;;;5.94;78.14;101011.59;6145789;29;20229;-73
2021/11/24 01:25:46;;;;;;;1.07;1.07;;;;;;;5.92;78.42;100999.25;6145915;29;20281;-73
2021/11/24 01:28:51;;;;;;;0.80;0.80;;;;;;;5.86;78.64;100998.13;6145977;29;20229;-74
2021/11/24 01:31:55;;;;;;;1.00;1.00;;;;;;;5.86;78.50;100998.13;6144658;29;20364;-73
2021/11/24 01:34:59;;;;;;;1.37;0.90;;;;;;;5.87;78.78;100994.41;6145278;29;20198;-74
2021/11/24 01:38:05;;;;;;;0.90;0.90;;;;;;;5.88;78.63;100989.84;6145477;29;20199;-73
2021/11/24 01:41:11;;;;;;;0.90;0.90;;;;;;;5.96;78.06;100989.72;6144398;29;20382;-73
2021/11/24 01:44:21;;;;;;;1.00;1.00;;;;;;;5.81;78.89;100995.09;6144214;29;20356;-74
2021/11/24 01:47:25;;;;;;;0.90;0.90;;;;;;;5.88;79.05;100987.94;6144556;29;20270;-73
2021/11/24 01:50:30;;;;;;;1.20;1.20;;;;;;;5.82;78.56;100979.69;6145529;29;20195;-73
2021/11/24 01:53:36;;;;;;;1.03;0.97;;;;;;;5.77;79.47;100977.53;6145188;29;20191;-73
2021/11/24 01:56:40;;;;;;;0.90;0.90;;;;;;;5.76;78.74;100992.09;6145337;29;20202;-74
2021/11/24 01:59:46;;;;;;;0.83;0.83;;;;;;;5.76;79.48;100983.97;6143911;29;20377;-74
2021/11/24 02:02:51;;;;;;;0.97;0.97;;;;;;;5.88;78.62;100985.22;6144778;29;20216;-73
2021/11/24 02:05:55;;;;;;;0.80;0.80;;;;;;;5.82;78.56;100991.38;6145456;29;20274;-74
2021/11/24 02:09:01;;;;;;;0.80;0.80;;;;;;;5.79;78.87;100991.72;6144773;29;20201;-73
2021/11/24 02:12:06;;;;;;;0.80;0.80;;;;;;;5.63;80.08;100989.16;6144731;29;20195;-74
2021/11/24 02:15:12;;;;;;;1.10;1.00;;;;;;;5.83;79.09;100987.63;6144709;29;20195;-74
2021/11/24 02:18:18;;;;;;;0.90;0.90;;;;;;;5.78;79.23;100976.50;6143552;29;20504;-74
2021/11/24 02:21:24;;;;;;;0.80;0.80;;;;;;;5.70;79.36;100980.13;6144643;29;20222;-73
2021/11/24 02:24:30;;;;;;;0.80;0.80;;;;;;;5.65;79.95;100973.56;6144773;29;20221;-74
2021/11/24 02:27:35;;;;;;;0.80;0.80;;;;;;;5.52;80.38;100973.34;6143241;29;20219;-74
2021/11/24 02:30:39;;;;;;;0.90;0.90;;;;;;;5.47;80.19;100976.59;6143365;29;20411;-74
2021/11/24 02:33:49;;;;;;;0.70;0.70;;;;;;;5.40;81.39;100981.03;6143135;29;20477;-74
2021/11/24 02:36:54;;;;;;;1.10;1.10;;;;;;;5.61;81.13;100983.06;6143465;29;20194;-74
2021/11/24 02:39:58;;;;;;;0.90;0.90;;;;;;;5.58;80.80;100972.59;6144344;29;20229;-74
2021/11/24 02:43:04;;;;;;;1.00;1.00;;;;;;;5.52;80.93;100968.75;6142980;29;20496;-74
2021/11/24 02:46:09;;;;;;;1.30;1.10;;;;;;;5.56;80.42;100974.66;6144142;29;20219;-74
2021/11/24 02:49:14;;;;;;;1.07;1.00;;;;;;;5.53;81.50;100969.59;6144133;29;20225;-74
2021/11/24 02:52:22;;;;;;;1.00;1.00;;;;;;;5.43;81.51;100974.41;6143692;29;20190;-72
2021/11/24 02:55:26;;;;;;;0.97;0.97;;;;;;;5.62;80.77;100973.94;6143940;29;20198;-73
2021/11/24 02:58:30;;;;;;;1.03;1.03;;;;;;;5.51;80.90;100971.66;6142570;29;20501;-73
2021/11/24 03:01:35;;;;;;;1.20;1.10;;;;;;;5.51;80.54;100974.38;6144126;29;20255;-73
2021/11/24 03:04:39;;;;;;;1.20;1.10;;;;;;;5.53;80.81;100975.03;6143288;29;20245;-73
2021/11/24 03:07:44;;;;;;;0.97;0.90;;;;;;;5.47;81.12;100975.75;6143705;29;20218;-73
2021/11/24 03:10:48;;;;;;;1.03;1.03;;;;;;;5.48;80.84;100972.00;6142718;29;20247;-73
2021/11/24 03:13:52;;;;;;;1.20;1.10;;;;;;;5.48;80.65;100972.88;6143369;29;20288;-73
2021/11/24 03:16:57;;;;;;;0.93;0.93;;;;;;;5.48;80.71;100961.19;6143390;29;20201;-73
2021/11/24 03:20:01;;;;;;;2.73;1.10;;;;;;;5.43;81.30;100969.00;6142768;29;20221;-73
2021/11/24 03:23:08;;;;;;;1.00;1.00;;;;;;;5.51;81.03;100955.41;6142111;29;20253;-73
2021/11/24 03:26:15;;;;;;;0.80;0.80;;;;;;;5.54;81.04;100949.66;6142935;29;20218;-73
2021/11/24 03:29:19;;;;;;;0.93;0.93;;;;;;;5.44;80.83;100949.06;6143197;29;20223;-73
2021/11/24 03:32:24;;;;;;;1.23;1.13;;;;;;;5.62;81.19;100963.13;6141936;29;20199;-73
2021/11/24 03:35:29;;;;;;;1.70;0.83;;;;;;;5.61;80.41;100961.44;6143110;29;20222;-73
2021/11/24 03:38:35;;;;;;;0.80;0.80;;;;;;;5.53;81.25;100954.22;6141721;29;20213;-73
2021/11/24 03:41:39;;;;;;;1.10;1.10;;;;;;;5.50;81.11;100964.56;6143029;29;20222;-73
2021/11/24 03:44:44;;;;;;;2.83;1.30;;;;;;;5.52;81.09;100962.53;6142581;29;20323;-73
2021/11/24 03:47:49;;;;;;;1.00;1.00;;;;;;;5.51;81.15;100961.69;6141927;29;20218;-73
2021/11/24 03:50:53;;;;;;;0.90;0.90;;;;;;;5.64;80.29;100966.47;6142786;29;20214;-74
2021/11/24 03:53:59;;;;;;;1.00;1.00;;;;;;;5.63;80.91;100957.50;6142297;29;20462;-73
2021/11/24 03:57:04;;;;;;;1.27;1.13;;;;;;;5.55;80.89;100954.03;6142620;29;20202;-74
2021/11/24 04:00:14;;;;;;;1.10;1.10;;;;;;;5.58;80.54;100962.63;6141317;29;20496;-74
2021/11/24 04:03:20;;;;;;;3.10;1.17;;;;;;;5.71;80.42;100962.00;6141436;29;20374;-74
2021/11/24 04:06:26;;;;;;;1.00;1.00;;;;;;;5.57;81.16;100970.94;6142192;29;20242;-74
2021/11/24 04:09:31;;;;;;;2.63;1.00;;;;;;;5.66;80.83;100948.19;6141207;29;20501;-73
2021/11/24 04:12:37;;;;;;;1.03;1.03;;;;;;;5.60;80.64;100959.72;6142125;29;20191;-73
2021/11/24 04:15:42;;;;;;;1.03;1.00;;;;;;;5.51;80.83;100960.84;6142002;29;20190;-73
2021/11/24 04:18:47;;;;;;;2.93;1.20;;;;;;;5.54;80.51;100964.03;6141360;29;20198;-73
2021/11/24 04:21:52;;;;;;;1.43;1.00;;;;;;;5.52;80.54;100957.94;6140908;29;20270;-74
2021/11/24 04:24:57;;;;;;;1.57;1.10;;;;;;;5.47;81.67;100948.69;6140970;29;20443;-73
2021/11/24 04:28:02;;;;;;;1.00;1.00;;;;;;;5.41;81.17;100944.00;6142138;29;20271;-74
2021/11/24 04:31:08;;;;;;;0.80;0.80;;;;;;;5.49;81.04;100941.25;6142122;29;20191;-74
2021/11/24 04:34:14;;;;;;;0.90;0.90;;;;;;;5.53;80.75;100937.97;6140922;29;20244;-72
2021/11/24 04:37:19;;;;;;;1.80;1.03;;;;;;;5.77;79.83;100942.34;6141929;29;20195;-72
2021/11/24 04:40:24;;;;;;;0.90;0.90;;;;;;;5.66;79.90;100943.63;6140608;29;20538;-72
2021/11/24 04:43:31;;;;;;;0.87;0.80;;;;;;;5.51;80.39;100950.00;6141858;29;20262;-73
2021/11/24 04:46:35;;;;;;;2.27;1.03;;;;;;;5.51;80.23;100936.47;6141747;29;20217;-73
2021/11/24 04:49:39;;;;;;;0.90;0.90;;;;;;;5.63;80.08;100940.44;6141586;29;20196;-73
2021/11/24 04:52:44;;;;;;;0.70;0.70;;;;;;;5.63;80.24;100938.56;6141830;29;20223;-73
2021/11/24 04:55:49;;;;;;;1.00;1.00;;;;;;;5.77;79.96;100939.63;6141721;29;20190;-73
2021/11/24 04:58:55;;;;;;;1.27;1.27;;;;;;;5.84;79.49;100940.56;6141430;29;20241;-73
2021/11/24 05:01:59;;;;;;;1.40;1.00;;;;;;;5.72;79.66;100936.63;6141345;29;20192;-73
2021/11/24 05:05:05;;;;;;;0.90;0.90;;;;;;;5.60;80.31;100943.50;6140735;29;20457;-73
2021/11/24 05:08:10;;;;;;;2.23;1.10;;;;;;;5.60;81.22;100954.31;6140301;29;20253;-73
2021/11/24 05:11:18;;;;;;;1.10;1.00;;;;;;;5.64;80.43;100966.47;6140641;29;20222;-72
2021/11/24 05:14:26;;;;;;;0.90;0.90;;;;;;;5.56;80.70;100966.53;6141623;29;20258;-73
2021/11/24 05:17:32;;;;;;;0.90;0.90;;;;;;;5.46;80.95;100974.06;6140182;29;20195;-73
2021/11/24 05:20:37;;;;;;;1.00;1.00;;;;;;;5.37;81.41;100969.72;6140145;29;20442;-73
2021/11/24 05:23:43;;;;;;;3.80;1.03;;;;;;;5.30;82.21;100971.47;6140159;29;20198;-73
2021/11/24 05:26:49;;;;;;;1.60;1.00;;;;;;;5.35;82.49;100977.19;6141363;29;20227;-73
2021/11/24 05:29:54;;;;;;;1.30;1.20;;;;;;;5.42;82.09;100984.41;6141558;29;20191;-73
2021/11/24 05:32:58;;;;;;;4.93;1.20;;;;;;;5.44;82.38;100987.78;6141461;29;20226;-73
2021/11/24 05:36:02;;;;;;;1.07;1.07;;;;;;;5.32;82.36;100988.34;6141143;29;20197;-72
2021/11/24 05:39:09;;;;;;;1.57;1.53;;;;;;;5.25;83.06;100979.28;6141648;29;20202;-72
2021/11/24 05:42:15;;;;;;;5.93;1.10;;;;;;;5.39;81.80;100983.94;6139914;29;20373;-72
2021/11/24 05:45:36;;;;;;;2.23;1.33;;;;;;;5.36;82.30;100995.13;6145366;29;20192;-72
2021/11/24 05:48:42;;;;;;;1.73;1.30;;;;;;;5.26;82.44;100986.38;6145240;29;20294;-72
2021/11/24 05:51:47;;;;;;;2.07;1.37;;;;;;;5.42;82.26;100991.66;6145123;29;20202;-73
2021/11/24 05:54:51;;;;;;;0.90;0.90;;;;;;;5.52;81.96;100989.59;6144615;29;20222;-74
2021/11/24 05:57:57;;;;;;;1.77;1.10;;;;;;;5.52;81.88;100984.19;6145391;29;20259;-74
2021/11/24 06:01:01;;;;;;;2.87;1.27;;;;;;;5.62;81.74;100998.31;6144792;29;20227;-74
2021/11/24 06:04:06;;;;;;;1.53;1.20;;;;;;;5.60;81.25;100981.38;6143586;29;20229;-74
2021/11/24 06:07:13;;;;;;;0.87;0.87;;;;;;;5.68;81.29;101000.28;6143719;29;20250;-73
2021/11/24 06:10:19;;;;;;;1.10;1.00;;;;;;;5.68;81.04;101006.53;6143654;29;20192;-73
2021/11/24 06:13:24;;;;;;;0.80;0.80;;;;;;;5.55;80.89;101006.28;6144045;29;20191;-73
2021/11/24 06:16:29;;;;;;;1.10;1.03;;;;;;;5.59;81.64;101023.03;6144363;29;20191;-73
2021/11/24 06:19:33;;;;;;;1.33;0.80;;;;;;;5.73;81.14;101014.09;6143695;29;20206;-74
2021/11/24 06:22:46;;;;;;;3.73;1.00;;;;;;;5.75;80.74;101017.50;6144631;29;20228;-73
2021/11/24 06:25:50;;;;;;;1.90;1.00;;;;;;;5.75;80.23;101025.63;6144295;29;20222;-74
2021/11/24 06:28:56;;;;;;;1.57;1.00;;;;;;;5.87;80.22;101021.47;6143256;29;20245;-73
2021/11/24 06:32:01;;;;;;;1.23;1.10;;;;;;;5.94;80.16;101022.44;6143207;29;20436;-73
2021/11/24 06:35:06;;;;;;;1.80;1.27;;;;;;;5.89;80.10;101013.16;6143222;29;20191;-74
2021/11/24 06:38:13;;;;;;;4.30;1.27;;;;;;;5.89;79.72;101024.84;6142950;29;20509;-74
2021/11/24 06:41:18;;;;;;;1.60;1.40;;;;;;;5.88;79.81;101017.72;6144042;29;20190;-74
2021/11/24 06:44:24;;;;;;;2.97;1.30;;;;;;;5.98;79.81;101007.50;6143056;29;20223;-74
2021/11/24 06:47:28;;;;;;;8.80;1.10;;;;;;;5.91;80.27;101021.94;6143827;29;20195;-74
2021/11/24 06:50:33;;;;;;;1.00;0.97;;;;;;;5.68;81.38;101016.50;6142578;29;20222;-74
2021/11/24 06:53:37;;;;;;;3.87;1.10;;;;;;;5.94;80.67;101017.00;6143793;29;20198;-73
2021/11/24 06:56:41;;;;;;;1.00;1.00;;;;;;;5.97;80.72;101032.91;6143046;29;20308;-73
2021/11/24 06:59:46;;;;;;;3.20;1.20;;;;;;;5.80;81.59;101042.16;6143421;29;20230;-73
2021/11/24 07:02:51;;;;;;;1.40;1.40;;;;;;;5.71;81.89;101043.22;6142919;29;20239;-72
2021/11/24 07:05:55;;;;;;;1.00;1.00;;;;;;;5.86;81.93;101041.44;6141821;29;20591;-73
2021/11/24 07:08:59;;;;;;;0.90;0.90;;;;;;;5.81;82.12;101049.25;6143283;29;20218;-73
2021/11/24 07:12:05;;;;;;;0.90;0.90;;;;;;;5.90;81.48;101045.50;6142754;29;20200;-73
2021/11/24 07:15:14;;;;;;;1.10;1.03;;;;;;;5.89;81.32;101051.06;6141715;29;20422;-73
2021/11/24 07:18:22;;;;;;;1.33;1.33;;;;;;;5.79;81.76;101045.88;6142465;29;20195;-72
2021/11/24 07:21:26;;;;;;;1.10;1.10;;;;;;;5.81;81.97;101051.94;6142929;29;20191;-73
2021/11/24 07:24:30;;;;;;;2.23;1.00;;;;;;;6.03;80.92;101053.00;6142229;29;20222;-73
2021/11/24 07:27:34;;;;;;;4.83;1.10;;;;;;;6.01;81.76;101060.47;6142332;29;20425;-73
2021/11/24 07:30:40;;;;;;;0.90;0.90;;;;;;;6.11;81.11;101061.06;6141343;29;20447;-73
2021/11/24 07:33:44;;;;;;;2.30;1.03;;;;;;;6.06;80.79;101064.28;6141630;29;20246;-73
2021/11/24 07:36:48;;;;;;;1.70;1.13;;;;;;;6.12;80.63;101069.00;6141345;29;20477;-73
2021/11/24 07:39:53;;;;;;;0.90;0.90;;;;;;;6.06;80.84;101075.13;6142658;29;20194;-73
2021/11/24 07:42:57;;;;;;;2.43;0.93;;;;;;;6.01;81.14;101071.31;6141738;29;20404;-73
2021/11/24 07:46:03;;;;;;;1.30;1.07;;;;;;;6.08;81.84;101067.69;6142511;29;20198;-73
2021/11/24 07:49:07;;;;;;;0.97;0.97;;;;;;;6.08;81.21;101062.28;6142449;29;20225;-73
2021/11/24 07:52:14;;;;;;;1.10;1.10;;;;;;;6.06;81.21;101069.72;6141136;29;20525;-73
2021/11/24 07:55:18;;;;;;;2.27;1.10;;;;;;;6.12;81.39;101069.00;6142149;29;20189;-73
2021/11/24 07:58:23;;;;;;;1.00;1.00;;;;;;;6.14;81.29;101076.94;6142488;29;20202;-73
2021/11/24 08:01:28;;;;;;;1.07;1.07;;;;;;;6.29;80.83;101075.94;6141844;29;20191;-73
2021/11/24 08:04:33;;;;;;;2.20;1.03;;;;;;;6.38;80.26;101081.28;6141123;29;20242;-73
2021/11/24 08:07:37;;;;;;;1.00;1.00;;;;;;;6.32;80.84;101086.41;6141445;29;20259;-73
2021/11/24 08:10:42;;;;;;;1.03;1.03;;;;;;;6.34;80.16;101082.69;6141827;29;20225;-73
2021/11/24 08:13:47;;;;;;;1.13;1.03;;;;;;;6.30;80.18;101074.94;6142068;29;20195;-73
2021/11/24 08:16:52;;;;;;;1.10;1.00;;;;;;;6.17;81.08;101088.25;6141868;29;20199;-73
2021/11/24 08:19:57;;;;;;;1.00;1.00;;;;;;;6.12;80.95;101078.97;6143027;29;20195;-73
2021/11/24 08:23:01;;;;;;;1.10;1.10;;;;;;;6.03;80.28;101086.34;6144093;29;20548;-73
2021/11/24 08:26:05;;;;;;;1.10;1.00;;;;;;;6.10;82.21;101075.63;6143506;29;20202;-73
2021/11/24 08:29:12;;;;;;;1.07;1.07;;;;;;;6.17;81.39;101088.25;6144974;29;20219;-73
2021/11/24 08:32:17;;;;;;;2.47;1.20;;;;;;;6.20;81.08;101082.47;6144802;29;20190;-73
2021/11/24 08:35:23;;;;;;;1.27;1.27;;;;;;;6.17;82.05;101085.53;6144763;29;20222;-73
2021/11/24 08:38:27;;;;;;;1.20;1.20;;;;;;;6.11;83.07;101077.31;6143670;29;20190;-73
2021/11/24 08:41:31;;;;;;;0.83;0.83;;;;;;;6.27;82.20;101080.72;6143890;29;20215;-73
2021/11/24 08:44:36;;;;;;;2.47;0.93;;;;;;;6.28;82.05;101090.53;6144507;29;20198;-73
2021/11/24 08:47:42;;;;;;;1.07;1.07;;;;;;;6.45;81.42;101084.94;6144619;29;20412;-73
2021/11/24 08:50:46;;;;;;;1.00;1.00;;;;;;;6.38;81.16;101094.84;6143588;29;20219;-74
2021/11/24 08:53:50;;;;;;;1.20;1.17;;;;;;;6.47;81.36;101104.59;6143986;29;20501;-73
2021/11/24 08:56:54;;;;;;;2.77;1.00;;;;;;;6.48;81.37;101106.25;6144043;29;20190;-73
2021/11/24 08:59:59;;;;;;;1.10;1.00;;;;;;;6.46;81.18;101097.47;6143349;29;20455;-73
2021/11/24 09:03:05;;;;;;;1.20;1.10;;;;;;;6.42;81.07;101104.31;6143218;29;20214;-73
2021/11/24 09:06:12;;;;;;;1.30;1.00;;;;;;;6.23;81.85;101101.09;6142971;29;20486;-73
2021/11/24 09:09:16;;;;;;;1.80;0.90;;;;;;;6.44;81.80;101096.81;6143111;29;20237;-72
2021/11/24 09:12:20;;;;;;;0.90;0.90;;;;;;;6.46;81.34;101098.31;6144306;29;20500;-73
2021/11/24 09:15:24;;;;;;;1.17;1.07;;;;;;;6.46;81.36;101094.78;6143230;29;20412;-76
2021/11/24 09:18:50;;;;;;;1.00;1.00;;;;;;;6.56;80.73;101098.06;6145679;29;20367;-73
2021/11/24 09:21:55;;;;;;;1.07;1.07;;;;;;;6.53;80.46;101087.56;6148634;29;20192;-73
2021/11/24 09:25:00;;;;;;;4.27;1.10;;;;;;;6.51;80.84;101085.06;6148446;29;20231;-74
2021/11/24 09:28:10;;;;;;;1.60;0.90;;;;;;;6.50;81.45;101079.81;6147855;29;20230;-73
2021/11/24 09:31:17;;;;;;;1.90;1.20;;;;;;;6.55;81.28;101080.13;6148317;29;20290;-73
2021/11/24 09:34:24;;;;;;;1.20;1.10;;;;;;;6.57;81.19;101076.19;6146537;29;20506;-73
2021/11/24 09:37:29;;;;;;;1.20;1.20;;;;;;;6.57;81.70;101076.19;6145152;29;20304;-73
2021/11/24 09:40:34;;;;;;;1.03;0.90;;;;;;;6.64;81.08;101073.56;6145405;29;20259;-73
2021/11/24 09:43:42;;;;;;;1.00;1.00;;;;;;;6.67;80.93;101074.06;6145241;29;20227;-73
2021/11/24 09:46:49;;;;;;;2.20;1.23;;;;;;;6.64;80.78;101079.00;6145229;29;20191;-73
2021/11/24 09:49:58;;;;;;;0.90;0.90;;;;;;;6.71;80.49;101079.94;6144265;29;20274;-73
2021/11/24 09:53:03;;;;;;;0.97;0.97;;;;;;;6.58;80.50;101071.59;6144907;29;20258;-74
2021/11/24 09:56:08;;;;;;;1.90;1.00;;;;;;;6.57;80.75;101069.94;6145300;29;20223;-73
2021/11/24 09:59:14;;;;;;;1.23;1.13;;;;;;;6.62;80.47;101070.22;6145269;29;20199;-73
2021/11/24 10:02:19;;;;;;;1.60;0.90;;;;;;;6.79;80.00;101077.13;6143723;29;20401;-73
2021/11/24 10:05:26;;;;;;;1.20;1.20;;;;;;;6.80;79.85;101073.41;6143778;29;20233;-75
2021/11/24 10:08:32;;;;;;;1.77;0.90;;;;;;;6.61;80.40;101074.78;6144709;29;20191;-73
2021/11/24 10:11:37;;;;;;;3.20;1.50;;;;;;;6.64;80.54;101073.56;6144688;29;20408;-73
2021/11/24 10:14:43;;;;;;;7.70;2.00;;;;;;;6.63;80.75;101080.00;6143918;29;20254;-73
2021/11/24 10:17:47;;;;;;;1.20;1.20;;;;;;;6.72;79.93;101087.06;6144315;29;20241;-74
2021/11/24 10:20:56;;;;;;;2.10;1.97;;;;;;;6.52;80.44;101091.34;6143758;29;20243;-73
2021/11/24 10:24:02;;;;;;;2.30;2.10;;;;;;;6.57;80.27;101080.78;6142984;29;20511;-73
2021/11/24 10:27:08;;;;;;;1.53;1.53;;;;;;;6.59;80.27;101086.84;6144186;29;20192;-73
2021/11/24 10:30:33;;;;;;;2.20;1.50;;;;;;;6.83;79.34;101083.88;6143868;29;20522;-74
2021/11/24 10:33:37;;;;;;;1.20;1.20;;;;;;;6.86;78.81;101088.91;6144696;29;20272;-74
2021/11/24 10:37:00;;;;;;;1.30;1.30;;;;;;;6.93;78.30;101089.88;6143454;29;20192;-74
2021/11/24 10:40:07;;;;;;;1.40;1.17;;;;;;;6.82;78.95;101087.63;6144491;29;20208;-74
2021/11/24 10:43:13;;;;;;;1.30;1.30;;;;;;;6.72;79.19;101087.06;6143031;29;20192;-74
2021/11/24 10:46:18;;;;;;;1.87;1.50;;;;;;;6.81;79.17;101092.19;6144115;29;20190;-74
2021/11/24 10:49:34;;;;;;;1.33;1.30;;;;;;;6.97;78.64;101087.59;6142759;29;20189;-74
2021/11/24 10:52:46;;;;;;;5.03;1.60;;;;;;;6.86;78.58;101089.75;6143812;29;20216;-74
2021/11/24 10:55:51;;;;;;;1.63;1.53;;;;;;;6.93;78.59;101089.88;6143387;29;20267;-74
2021/11/24 10:59:17;;;;;;;4.33;1.60;;;;;;;7.09;77.67;101088.84;6126083;29;20395;-74
2021/11/24 11:02:27;;;;;;;3.43;1.60;;;;;;;6.87;78.77;101090.59;6143479;29;20203;-73
2021/11/24 11:05:32;;;;;;;1.27;1.27;;;;;;;6.91;78.99;101081.06;6142692;29;20605;-74
2021/11/24 11:08:38;;;;;;;1.50;1.40;;;;;;;7.10;78.40;101077.78;6142165;29;20191;-74
2021/11/24 11:12:09;;;;;;;2.87;1.50;;;;;;;7.08;78.37;101089.84;6142941;29;20219;-74
2021/11/24 11:15:23;;;;;;;2.27;1.77;;;;;;;7.00;78.85;101074.53;6143105;29;20196;-73
2021/11/24 11:18:38;;;;;;;1.73;1.63;;;;;;;7.05;78.43;101068.53;6143175;29;20243;-74
2021/11/24 11:21:43;;;;;;;4.90;1.57;;;;;;;7.04;77.85;101073.09;6141942;29;20227;-73
2021/11/24 11:24:48;;;;;;;3.43;1.53;;;;;;;7.01;78.03;101070.75;6143012;29;20191;-74
2021/11/24 11:27:53;;;;;;;1.70;1.33;;;;;;;6.96;77.75;101084.03;6141909;29;20273;-75
2021/11/24 11:31:01;;;;;;;2.10;1.50;;;;;;;6.97;78.68;101080.31;6141939;29;20298;-74
2021/11/24 11:34:05;;;;;;;1.80;1.70;;;;;;;7.07;77.25;101074.59;6142688;29;20236;-74
2021/11/24 11:37:10;;;;;;;1.67;1.20;;;;;;;7.21;77.91;101071.03;6142692;29;20256;-73
2021/11/24 11:40:18;;;;;;;1.47;1.37;;;;;;;7.01;78.52;101080.78;6142585;29;20211;-74
2021/11/24 11:43:24;;;;;;;3.10;1.43;;;;;;;7.02;79.11;101077.03;6142568;29;20198;-73
2021/11/24 11:46:34;;;;;;;1.93;1.40;;;;;;;7.07;78.37;101059.16;6141984;29;20192;-73
2021/11/24 11:49:39;;;;;;;1.83;1.20;;;;;;;6.91;78.63;101054.78;6142165;29;20207;-73
2021/11/24 11:53:09;;;;;;;1.73;1.60;;;;;;;6.97;78.38;101050.47;6142761;29;20294;-74
2021/11/24 11:56:19;;;;;;;3.80;1.77;;;;;;;7.00;78.83;101052.81;6142160;29;20195;-73
2021/11/24 11:59:25;;;;;;;3.47;1.70;;;;;;;6.96;79.30;101048.78;6142123;29;20220;-73
2021/11/24 12:02:29;;;;;;;3.40;1.70;;;;;;;6.91;79.15;101043.09;6141274;29;20195;-73
2021/11/24 12:05:34;;;;;;;1.40;1.30;;;;;;;6.96;78.33;101035.22;6141313;29;20231;-72
2021/11/24 12:09:09;;;;;;;2.87;1.67;;;;;;;6.94;78.29;101026.44;6141717;29;20191;-73
2021/11/24 12:12:19;;;;;;;3.60;1.47;;;;;;;6.95;78.56;101017.28;6141980;29;20377;-74
2021/11/24 12:15:28;;;;;;;2.97;1.40;;;;;;;7.05;76.94;101016.97;6141298;29;20191;-73
2021/11/24 12:18:35;;;;;;;2.27;1.57;;;;;;;6.98;77.97;101013.34;6141753;29;20191;-74
2021/11/24 12:21:48;;;;;;;3.43;1.60;;;;;;;7.10;77.93;101009.09;6140802;29;20383;-73
2021/11/24 12:24:52;;;;;;;2.30;1.60;;;;;;;7.05;76.84;101006.97;6140812;29;20520;-73
2021/11/24 12:28:09;;;;;;;1.43;1.43;;;;;;;6.92;77.31;101014.94;6140409;29;20414;-73
2021/11/24 12:31:15;;;;;;;1.53;1.50;;;;;;;7.02;77.71;100998.38;6141306;29;20223;-73
2021/11/24 12:34:20;;;;;;;2.13;1.70;;;;;;;6.85;78.45;101008.59;6141398;29;20192;-73
2021/11/24 12:37:24;;;;;;;1.40;1.40;;;;;;;6.87;77.67;101009.25;6141545;29;20201;-73
2021/11/24 12:40:31;;;;;;;2.73;1.73;;;;;;;6.80;78.11;101013.75;6141356;29;20252;-73
2021/11/24 12:43:40;;;;;;;3.07;2.20;;;;;;;6.78;78.46;101010.34;6141889;29;20202;-73
2021/11/24 12:46:46;;;;;;;3.37;1.87;;;;;;;6.69;78.21;101012.34;6141340;29;20195;-74
2021/11/24 12:49:51;;;;;;;2.70;2.10;;;;;;;6.68;78.26;100993.53;6140829;29;20195;-73
2021/11/24 12:52:57;;;;;;;5.53;2.47;;;;;;;6.70;78.48;101007.78;6141627;29;20219;-73
2021/11/24 12:56:09;;;;;;;7.60;2.30;;;;;;;6.60;79.28;101002.59;6145429;29;20191;-73
2021/11/24 12:59:19;;;;;;;2.07;1.87;;;;;;;6.55;79.44;101004.22;6145250;29;20391;-74
2021/11/24 13:02:27;;;;;;;1.83;1.70;;;;;;;6.56;79.52;100993.19;6145097;29;20413;-73
2021/11/24 13:05:32;;;;;;;3.47;1.73;;;;;;;6.69;79.35;100995.22;6144879;29;20591;-74
2021/11/24 13:08:36;;;;;;;3.60;2.13;;;;;;;6.68;79.18;100996.25;6146185;29;20263;-74
2021/11/24 13:11:53;;;;;;;6.00;2.33;;;;;;;6.59;80.04;100997.38;6146087;29;20327;-74
2021/11/24 13:15:00;;;;;;;4.43;1.83;;;;;;;6.61;78.09;101004.31;6146176;29;20189;-74
2021/11/24 13:18:25;;;;;;;2.23;1.80;;;;;;;6.49;79.45;101015.81;6144613;29;20277;-74
2021/11/24 13:21:34;;;;;;;5.80;1.93;;;;;;;6.54;79.54;101006.09;6146172;29;20202;-73
2021/11/24 13:24:41;;;;;;;1.77;1.60;;;;;;;6.54;79.50;100997.09;6146076;29;20191;-73
2021/11/24 13:27:49;;;;;;;3.17;1.60;;;;;;;6.44;80.22;100991.13;6145624;29;20195;-74
2021/11/24 13:30:57;;;;;;;7.20;1.80;;;;;;;6.36;81.27;100983.09;6145627;29;20223;-73
2021/11/24 13:34:06;;;;;;;1.73;1.60;;;;;;;6.30;80.36;100990.94;6144734;29;20247;-74
2021/11/24 13:37:11;;;;;;;2.47;1.47;;;;;;;6.32;81.06;100987.19;6144339;29;20483;-73
2021/11/24 13:40:35;;;;;;;3.80;1.77;;;;;;;6.38;81.34;100990.00;6145518;29;20231;-73
2021/11/24 13:43:41;;;;;;;1.80;1.70;;;;;;;6.52;80.96;100972.06;6144189;29;20480;-73
2021/11/24 13:46:54;;;;;;;5.57;1.60;;;;;;;6.54;80.50;100967.28;6145177;29;20259;-73
2021/11/24 13:49:59;;;;;;;3.80;1.50;;;;;;;6.47;80.76;100974.50;6145358;29;20199;-73
2021/11/24 13:53:26;;;;;;;2.23;1.40;;;;;;;6.50;80.59;100968.69;6143977;29;20516;-74
2021/11/24 13:56:31;;;;;;;3.60;2.00;;;;;;;6.44;81.22;100964.03;6143655;29;20438;-73
2021/11/24 13:59:37;;;;;;;3.33;2.00;;;;;;;6.34;81.81;100963.47;6143812;29;20191;-72
2021/11/24 14:02:47;;;;;;;4.73;1.80;;;;;;;6.34;81.22;100971.59;6144114;29;20196;-74
2021/11/24 14:05:52;;;;;;;1.67;1.57;;;;;;;6.46;81.20;100961.97;6143063;29;20397;-73
2021/11/24 14:08:56;;;;;;;1.53;1.53;;;;;;;6.36;81.15;100966.81;6143542;29;20489;-73
2021/11/24 14:12:07;;;;;;;1.97;1.90;;;;;;;6.20;81.55;100965.97;6144634;29;20286;-73
2021/11/24 14:15:14;;;;;;;1.87;1.80;;;;;;;6.06;81.82;100961.38;6144646;29;20207;-73
2021/11/24 14:18:20;;;;;;;2.83;1.90;;;;;;;6.06;82.21;100947.81;6144660;29;20296;-73
2021/11/24 14:21:24;;;;;;;2.67;1.80;;;;;;;6.10;82.04;100957.28;6144510;29;20199;-74
2021/11/24 14:24:29;;;;;;;2.07;1.60;;;;;;;6.14;81.44;100958.56;6143781;29;20270;-73
2021/11/24 14:27:33;;;;;;;2.50;1.77;;;;;;;6.03;80.92;100961.75;6144609;29;20337;-73
2021/11/24 14:30:39;;;;;;;3.17;1.40;;;;;;;6.00;82.25;100954.00;6144538;29;20254;-73
2021/11/24 14:33:45;;;;;;;6.33;1.80;;;;;;;5.94;81.85;100949.31;6144089;29;20219;-72
2021/11/24 14:36:50;;;;;;;1.70;1.60;;;;;;;5.84;82.23;100956.81;6143262;29;20270;-73
2021/11/24 14:39:54;;;;;;;1.83;1.73;;;;;;;5.83;82.65;100949.72;6143889;29;20388;-74